Time;durP1;ratioP1;P1;durP2;ratioP2;P2;SDS_P1;SDS_P2;PMS_P1;PMS_P2;Temp;Humidity;BMP_temperature;BMP_pressure;BME280_temperature;BME280_humidity;BME280_pressure;Samples;Min_cycle;Max_cycle;Signal;HPM_P1;HPM_P2
2023/09/16 00:01:36;;;;;;;0.10;0.10;;;;;;;12.09;100.00;101263.41;5114617;28;20030;-45
2023/09/16 00:04:01;;;;;;;0.10;0.10;;;;;;;12.04;100.00;101259.81;5115829;28;20031;-46
2023/09/16 00:06:27;;;;;;;0.10;0.10;;;;;;;12.12;100.00;101261.81;5115545;28;20119;-44
2023/09/16 00:08:52;;;;;;;0.10;0.10;;;;;;;12.12;100.00;101255.75;5114932;28;20024;-44
2023/09/16 00:11:17;;;;;;;0.10;0.10;;;;;;;12.10;100.00;101260.88;5115297;28;20044;-44
2023/09/16 00:13:43;;;;;;;0.10;0.10;;;;;;;12.13;100.00;101257.50;5115633;28;20393;-48
2023/09/16 00:16:09;;;;;;;0.10;0.10;;;;;;;12.13;100.00;101262.66;5114750;28;20080;-49
2023/09/16 00:18:35;;;;;;;0.10;0.10;;;;;;;12.03;100.00;101258.91;5114943;27;20051;-46
2023/09/16 00:21:00;;;;;;;0.10;0.10;;;;;;;12.05;100.00;101267.59;5115348;28;20032;-45
2023/09/16 00:23:25;;;;;;;0.10;0.10;;;;;;;12.10;100.00;101273.78;5114344;28;20102;-44
2023/09/16 00:25:52;;;;;;;0.20;0.20;;;;;;;12.05;100.00;101267.59;5115504;28;20075;-44
2023/09/16 00:28:17;;;;;;;0.10;0.10;;;;;;;12.12;100.00;101266.97;5115057;28;20035;-45
2023/09/16 00:30:48;;;;;;;0.10;0.10;;;;;;;12.07;100.00;101270.22;5114378;28;20027;-46
2023/09/16 00:33:13;;;;;;;0.10;0.10;;;;;;;11.97;100.00;101269.97;5115089;28;20047;-44
2023/09/16 00:35:39;;;;;;;0.20;0.20;;;;;;;12.10;100.00;101276.38;5114377;28;20039;-44
2023/09/16 00:38:04;;;;;;;0.10;0.10;;;;;;;12.14;100.00;101277.34;5114867;28;20111;-45
2023/09/16 00:40:30;;;;;;;0.10;0.10;;;;;;;12.14;100.00;101270.47;5114688;28;20027;-44
2023/09/16 00:42:55;;;;;;;0.10;0.10;;;;;;;12.14;100.00;101267.88;5114171;28;20498;-47
2023/09/16 00:45:20;;;;;;;0.17;0.17;;;;;;;12.15;100.00;101268.78;5114453;28;20023;-45
2023/09/16 00:47:46;;;;;;;0.10;0.10;;;;;;;12.11;100.00;101267.81;5115006;28;20023;-45
2023/09/16 00:50:17;;;;;;;0.10;0.10;;;;;;;12.09;100.00;101266.88;5113852;28;20022;-46
2023/09/16 00:52:50;;;;;;;0.10;0.10;;;;;;;12.13;100.00;101266.13;5114610;28;20019;-47
2023/09/16 00:55:16;;;;;;;0.10;0.10;;;;;;;12.01;100.00;101264.06;5114369;28;20032;-46
2023/09/16 00:57:46;;;;;;;0.10;0.10;;;;;;;12.11;100.00;101262.63;5113591;28;20393;-48
2023/09/16 01:00:12;;;;;;;0.10;0.10;;;;;;;11.86;100.00;101254.13;5114587;28;20058;-47
2023/09/16 01:02:37;;;;;;;0.10;0.10;;;;;;;11.77;100.00;101246.06;5114920;28;20459;-44
2023/09/16 01:05:13;;;;;;;0.10;0.10;;;;;;;11.68;100.00;101246.66;5113810;28;20046;-45
2023/09/16 01:07:39;;;;;;;0.10;0.10;;;;;;;11.73;100.00;101244.22;5114724;27;20019;-46
2023/09/16 01:10:06;;;;;;;0.10;0.10;;;;;;;11.65;100.00;101238.81;5114625;28;20035;-48
2023/09/16 01:12:31;;;;;;;0.10;0.10;;;;;;;11.64;100.00;101238.75;5113098;28;20482;-46
2023/09/16 01:14:57;;;;;;;0.20;0.20;;;;;;;11.60;100.00;101237.78;5114533;28;20035;-48
2023/09/16 01:17:27;;;;;;;0.10;0.10;;;;;;;11.45;100.00;101238.19;5114178;28;20111;-47
2023/09/16 01:20:06;;;;;;;0.10;0.10;;;;;;;11.42;100.00;101239.78;5113638;28;20051;-47
2023/09/16 01:22:35;;;;;;;0.20;0.20;;;;;;;11.34;100.00;101234.38;5113909;28;20062;-49
2023/09/16 01:25:06;;;;;;;0.10;0.10;;;;;;;11.36;100.00;101243.94;5113276;28;20047;-47
2023/09/16 01:27:32;;;;;;;0.10;0.10;;;;;;;11.33;100.00;101237.78;5113949;28;20034;-45
2023/09/16 01:29:59;;;;;;;0.10;0.10;;;;;;;11.41;100.00;101233.72;5114125;28;20027;-45
2023/09/16 01:32:34;;;;;;;0.20;0.20;;;;;;;11.42;100.00;101238.06;5113092;28;20099;-45
2023/09/16 01:35:06;;;;;;;0.20;0.20;;;;;;;11.43;100.00;101229.50;5114101;28;20065;-44
2023/09/16 01:37:31;;;;;;;0.20;0.20;;;;;;;11.40;100.00;101239.75;5113596;28;20414;-45
2023/09/16 01:39:58;;;;;;;0.20;0.20;;;;;;;11.49;100.00;101240.03;5113217;28;20023;-45
2023/09/16 01:42:26;;;;;;;0.10;0.10;;;;;;;11.46;100.00;101239.91;5113700;28;20024;-45
2023/09/16 01:44:54;;;;;;;0.10;0.10;;;;;;;11.44;100.00;101241.59;5113867;28;20023;-48
2023/09/16 01:47:21;;;;;;;0.10;0.10;;;;;;;11.38;100.00;101235.38;5112696;28;20028;-46
2023/09/16 01:49:46;;;;;;;0.20;0.20;;;;;;;11.33;100.00;101233.47;5113787;28;20028;-45
2023/09/16 01:52:11;;;;;;;0.20;0.20;;;;;;;11.34;100.00;101229.22;5113368;28;20105;-46
2023/09/16 01:54:37;;;;;;;0.20;0.20;;;;;;;11.29;100.00;101230.78;5113077;28;20032;-48
2023/09/16 01:57:02;;;;;;;0.20;0.20;;;;;;;11.19;100.00;101233.06;5113413;28;20050;-46
2023/09/16 01:59:28;;;;;;;0.10;0.10;;;;;;;11.12;100.00;101223.34;5113295;28;20027;-45
2023/09/16 02:01:53;;;;;;;0.10;0.10;;;;;;;11.10;100.00;101229.28;5112943;28;20098;-44
2023/09/16 02:04:18;;;;;;;0.20;0.20;;;;;;;11.02;100.00;101226.44;5112617;28;20028;-45
2023/09/16 02:06:46;;;;;;;0.15;0.15;;;;;;;11.05;100.00;101226.53;5113405;28;20102;-46
2023/09/16 02:09:14;;;;;;;0.20;0.20;;;;;;;10.95;100.00;101224.47;5112548;28;20031;-44
2023/09/16 02:11:40;;;;;;;0.17;0.17;;;;;;;10.90;100.00;101220.84;5113459;28;20015;-47
2023/09/16 02:14:10;;;;;;;0.17;0.17;;;;;;;11.00;100.00;101235.81;5112651;28;20027;-45
2023/09/16 02:16:37;;;;;;;0.20;0.20;;;;;;;10.97;100.00;101233.13;5112950;28;20467;-45
2023/09/16 02:19:02;;;;;;;0.10;0.10;;;;;;;10.97;100.00;101233.13;5113246;28;20076;-44
2023/09/16 02:21:28;;;;;;;0.10;0.10;;;;;;;10.94;100.00;101228.75;5112147;28;20015;-46
2023/09/16 02:23:53;;;;;;;0.17;0.17;;;;;;;10.92;100.00;101229.53;5113448;28;20019;-44
2023/09/16 02:26:18;;;;;;;0.10;0.10;;;;;;;10.87;100.00;101230.25;5113167;28;20149;-46
2023/09/16 02:28:43;;;;;;;0.20;0.20;;;;;;;10.81;100.00;101227.47;5112511;28;20110;-45
2023/09/16 02:31:12;;;;;;;0.20;0.20;;;;;;;10.86;100.00;101225.91;5113262;28;20020;-44
2023/09/16 02:33:37;;;;;;;0.10;0.10;;;;;;;10.81;100.00;101229.16;5113178;28;20032;-46
2023/09/16 02:36:04;;;;;;;0.10;0.10;;;;;;;10.81;100.00;101222.31;5112283;28;20121;-45
2023/09/16 02:38:29;;;;;;;0.10;0.10;;;;;;;10.87;100.00;101216.47;5113062;28;20379;-46
2023/09/16 02:40:54;;;;;;;0.10;0.10;;;;;;;10.94;100.00;101218.44;5113062;28;20471;-45
2023/09/16 02:43:20;;;;;;;0.20;0.20;;;;;;;10.88;100.00;101218.22;5112076;28;20031;-48
2023/09/16 02:45:45;;;;;;;0.10;0.10;;;;;;;10.83;100.00;101212.94;5113096;28;20073;-47
2023/09/16 02:48:10;;;;;;;0.10;0.10;;;;;;;10.91;100.00;101214.88;5112986;28;20023;-44
2023/09/16 02:50:37;;;;;;;0.10;0.10;;;;;;;10.95;100.00;101214.16;5112190;28;20019;-47
2023/09/16 02:53:03;;;;;;;0.20;0.20;;;;;;;11.01;100.00;101211.78;5113318;28;20035;-44
2023/09/16 02:55:28;;;;;;;0.13;0.13;;;;;;;11.05;100.00;101218.78;5112731;28;20028;-46
2023/09/16 02:57:54;;;;;;;0.20;0.20;;;;;;;11.14;100.00;101213.97;5112165;28;20498;-45
2023/09/16 03:00:19;;;;;;;0.20;0.20;;;;;;;11.14;100.00;101211.38;5112776;28;20023;-44
2023/09/16 03:02:49;;;;;;;0.20;0.20;;;;;;;11.12;100.00;101217.31;5112814;28;20026;-46
2023/09/16 03:05:14;;;;;;;0.10;0.10;;;;;;;11.15;100.00;101213.13;5112092;28;20031;-44
2023/09/16 03:07:39;;;;;;;0.10;0.10;;;;;;;11.16;100.00;101212.28;5112989;28;20028;-44
2023/09/16 03:10:05;;;;;;;0.20;0.20;;;;;;;11.24;100.00;101216.84;5113277;28;20027;-44
2023/09/16 03:12:30;;;;;;;0.20;0.20;;;;;;;11.24;100.00;101217.69;5111943;28;20420;-49
2023/09/16 03:14:55;;;;;;;0.20;0.20;;;;;;;11.02;100.00;101210.97;5113296;28;20479;-46
2023/09/16 03:17:21;;;;;;;0.20;0.20;;;;;;;11.03;100.00;101203.28;5115541;28;20028;-44
2023/09/16 03:19:46;;;;;;;0.20;0.20;;;;;;;11.00;100.00;101204.88;5116477;28;20015;-44
2023/09/16 03:22:11;;;;;;;0.10;0.10;;;;;;;10.95;100.00;101199.56;5116467;28;20046;-44
2023/09/16 03:24:37;;;;;;;0.10;0.10;;;;;;;10.84;100.00;101201.75;5115833;28;20020;-46
2023/09/16 03:27:02;;;;;;;0.20;0.20;;;;;;;10.83;100.00;101200.03;5116573;27;20031;-45
2023/09/16 03:29:29;;;;;;;0.10;0.10;;;;;;;10.87;100.00;101198.41;5116020;28;20109;-44
2023/09/16 03:31:54;;;;;;;0.20;0.20;;;;;;;10.81;100.00;101199.09;5115542;28;20051;-45
2023/09/16 03:34:19;;;;;;;0.10;0.10;;;;;;;10.86;100.00;101200.13;5115883;28;20426;-47
2023/09/16 03:36:45;;;;;;;0.20;0.20;;;;;;;10.82;100.00;101198.28;5116282;28;20054;-47
2023/09/16 03:39:10;;;;;;;0.10;0.10;;;;;;;10.87;100.00;101201.88;5115536;28;20496;-47
2023/09/16 03:41:35;;;;;;;0.20;0.20;;;;;;;10.90;100.00;101189.91;5116020;28;20382;-45
2023/09/16 03:44:01;;;;;;;0.20;0.20;;;;;;;10.92;100.00;101194.28;5116118;28;20023;-45
2023/09/16 03:46:26;;;;;;;0.20;0.20;;;;;;;10.94;100.00;101197.81;5115015;28;20023;-44
2023/09/16 03:48:51;;;;;;;0.20;0.20;;;;;;;11.01;100.00;101197.19;5115808;28;20064;-47
2023/09/16 03:51:16;;;;;;;0.10;0.10;;;;;;;11.01;100.00;101183.41;5115880;28;20028;-46
2023/09/16 03:53:42;;;;;;;0.20;0.20;;;;;;;11.09;100.00;101191.41;5115139;28;20023;-46
2023/09/16 03:56:11;;;;;;;0.13;0.13;;;;;;;10.96;100.00;101185.84;5115810;28;20149;-44
2023/09/16 03:58:37;;;;;;;0.13;0.13;;;;;;;10.97;100.00;101181.56;5115752;28;20432;-45
2023/09/16 04:01:02;;;;;;;0.20;0.20;;;;;;;10.93;100.00;101185.72;5114883;28;20490;-44
2023/09/16 04:03:28;;;;;;;0.20;0.20;;;;;;;10.89;100.00;101183.03;5115307;28;20084;-45
2023/09/16 04:05:56;;;;;;;0.15;0.15;;;;;;;10.87;100.00;101186.41;5115837;27;20015;-45
2023/09/16 04:08:22;;;;;;;0.10;0.10;;;;;;;10.84;100.00;101191.44;5114712;28;20034;-45
2023/09/16 04:10:47;;;;;;;0.10;0.10;;;;;;;10.84;100.00;101190.59;5115701;28;20019;-46
2023/09/16 04:13:13;;;;;;;0.20;0.20;;;;;;;10.83;100.00;101188.81;5115281;28;20030;-44
2023/09/16 04:15:39;;;;;;;0.10;0.10;;;;;;;10.84;100.00;101186.28;5114764;28;20077;-44
2023/09/16 04:18:04;;;;;;;0.10;0.10;;;;;;;10.79;100.00;101186.97;5115555;28;20106;-46
2023/09/16 04:20:29;;;;;;;0.20;0.20;;;;;;;10.81;100.00;101182.75;5115267;28;20068;-47
2023/09/16 04:22:55;;;;;;;0.20;0.20;;;;;;;10.71;100.00;101190.16;5114738;28;20041;-46
2023/09/16 04:25:20;;;;;;;0.10;0.10;;;;;;;10.68;100.00;101194.34;5114985;28;20360;-44
2023/09/16 04:27:45;;;;;;;0.20;0.20;;;;;;;10.65;100.00;101194.22;5113869;28;20015;-44
2023/09/16 04:30:11;;;;;;;0.10;0.10;;;;;;;10.59;100.00;101186.28;5115261;28;20016;-46
2023/09/16 04:32:36;;;;;;;0.20;0.20;;;;;;;10.64;100.00;101188.22;5115030;28;20470;-45
2023/09/16 04:35:02;;;;;;;0.10;0.10;;;;;;;10.63;100.00;101183.00;5114527;28;20027;-44
2023/09/16 04:37:27;;;;;;;0.10;0.10;;;;;;;10.62;100.00;101181.25;5114868;28;20015;-44
2023/09/16 04:39:53;;;;;;;0.20;0.20;;;;;;;10.65;100.00;101178.75;5115101;28;20016;-45
2023/09/16 04:42:18;;;;;;;0.10;0.10;;;;;;;10.75;100.00;101175.69;5113866;28;20023;-46
2023/09/16 04:44:44;;;;;;;0.10;0.10;;;;;;;10.68;100.00;101176.31;5114857;28;20043;-44
2023/09/16 04:47:13;;;;;;;0.20;0.20;;;;;;;10.74;100.00;101178.22;5114817;28;20020;-45
2023/09/16 04:49:38;;;;;;;0.20;0.20;;;;;;;10.73;100.00;101181.59;5114188;27;20040;-45
2023/09/16 04:52:04;;;;;;;0.15;0.15;;;;;;;10.76;100.00;101176.56;5114889;28;20513;-45
2023/09/16 04:54:32;;;;;;;0.20;0.20;;;;;;;10.84;100.00;101190.59;5114632;28;20023;-44
2023/09/16 04:56:57;;;;;;;;;;;;;;;10.89;100.00;101183.03;5113879;28;20444;-48
2023/09/16 04:59:22;;;;;;;0.20;0.20;;;;;;;10.60;100.00;101176.03;5114336;28;19912;-48
2023/09/16 05:01:50;;;;;;;0.20;0.20;;;;;;;10.58;100.00;101176.81;5114497;28;20027;-44
2023/09/16 05:04:16;;;;;;;0.20;0.20;;;;;;;10.60;100.00;101177.72;5113550;28;20069;-47
2023/09/16 05:06:41;;;;;;;0.20;0.20;;;;;;;10.64;100.00;101182.16;5114453;28;20023;-44
2023/09/16 05:09:06;;;;;;;0.20;0.20;;;;;;;10.69;100.00;101180.63;5114519;28;20066;-46
2023/09/16 05:11:31;;;;;;;0.15;0.15;;;;;;;10.71;100.00;101184.13;5113190;28;20019;-46
2023/09/16 05:13:57;;;;;;;0.13;0.13;;;;;;;10.76;100.00;101181.72;5114302;28;20433;-44
2023/09/16 05:16:22;;;;;;;0.20;0.20;;;;;;;10.73;100.00;101176.44;5113740;28;20111;-44
2023/09/16 05:18:48;;;;;;;0.10;0.10;;;;;;;10.79;100.00;101187.84;5113436;28;20100;-44
2023/09/16 05:21:13;;;;;;;0.10;0.10;;;;;;;10.83;100.00;101183.66;5113932;28;20030;-44
2023/09/16 05:23:38;;;;;;;0.10;0.10;;;;;;;10.86;100.00;101184.66;5114184;28;20034;-45
2023/09/16 05:26:05;;;;;;;0.20;0.20;;;;;;;10.89;100.00;101185.59;5113377;28;20111;-45
2023/09/16 05:28:30;;;;;;;0.20;0.20;;;;;;;10.82;100.00;101187.06;5113783;28;20097;-44
2023/09/16 05:30:56;;;;;;;0.20;0.20;;;;;;;10.82;100.00;101185.38;5113536;28;20023;-44
2023/09/16 05:33:23;;;;;;;0.20;0.20;;;;;;;10.83;100.00;101183.66;5113762;28;20023;-45
2023/09/16 05:35:49;;;;;;;0.20;0.20;;;;;;;10.84;100.00;101188.88;5113869;28;20098;-44
2023/09/16 05:38:14;;;;;;;0.20;0.20;;;;;;;10.70;100.00;101178.13;5112446;28;20115;-45
2023/09/16 05:40:39;;;;;;;0.20;0.20;;;;;;;10.73;100.00;101177.34;5113575;28;20098;-44
2023/09/16 05:43:05;;;;;;;0.20;0.20;;;;;;;10.78;100.00;101180.97;5113751;28;20576;-44
2023/09/16 05:45:31;;;;;;;0.10;0.10;;;;;;;10.78;100.00;101177.47;5112599;28;20432;-45
2023/09/16 05:47:56;;;;;;;0.20;0.20;;;;;;;10.86;100.00;101184.66;5113624;28;20413;-45
2023/09/16 05:50:21;;;;;;;0.20;0.20;;;;;;;10.89;100.00;101181.31;5113576;28;20484;-46
2023/09/16 05:52:47;;;;;;;0.20;0.20;;;;;;;10.92;100.00;101190.84;5113019;28;20471;-44
2023/09/16 05:55:12;;;;;;;0.20;0.20;;;;;;;11.02;100.00;101174.84;5113303;28;20428;-48
2023/09/16 05:57:37;;;;;;;0.17;0.17;;;;;;;11.06;100.00;101189.59;5113345;28;20127;-43
2023/09/16 06:00:03;;;;;;;0.20;0.20;;;;;;;11.16;100.00;101183.91;5112629;28;20424;-46
2023/09/16 06:02:29;;;;;;;0.10;0.10;;;;;;;11.26;100.00;101184.22;5113111;28;20024;-44
2023/09/16 06:04:54;;;;;;;0.20;0.20;;;;;;;11.32;100.00;101190.47;5113359;28;20514;-46
2023/09/16 06:07:20;;;;;;;0.10;0.10;;;;;;;11.38;100.00;101188.91;5112398;28;20023;-44
2023/09/16 06:09:45;;;;;;;0.20;0.20;;;;;;;11.49;100.00;101197.84;5113567;28;20028;-44
2023/09/16 06:12:10;;;;;;;0.20;0.20;;;;;;;11.57;100.00;101198.09;5113404;28;20020;-44
2023/09/16 06:14:35;;;;;;;0.20;0.20;;;;;;;11.62;100.00;101200.00;5112146;28;20073;-44
2023/09/16 06:17:01;;;;;;;0.20;0.20;;;;;;;11.66;100.00;101196.69;5113148;28;20071;-44
2023/09/16 06:19:28;;;;;;;0.10;0.10;;;;;;;11.77;100.00;101203.88;5112970;28;20028;-48
2023/09/16 06:21:54;;;;;;;0.20;0.20;;;;;;;11.85;100.00;101198.13;5112458;28;20360;-45
2023/09/16 06:24:20;;;;;;;0.15;0.15;;;;;;;11.88;100.00;101197.34;5113097;28;20045;-45
2023/09/16 06:26:45;;;;;;;0.10;0.10;;;;;;;11.99;100.00;101200.25;5113191;28;20024;-45
2023/09/16 06:29:10;;;;;;;0.20;0.20;;;;;;;12.06;100.00;101197.03;5112323;28;20028;-45
2023/09/16 06:31:36;;;;;;;0.10;0.10;;;;;;;12.15;100.00;101199.88;5112833;28;20425;-45
2023/09/16 06:34:02;;;;;;;0.13;0.13;;;;;;;12.25;100.00;101205.31;5113188;28;20028;-44
2023/09/16 06:36:28;;;;;;;0.10;0.10;;;;;;;12.34;100.00;101203.88;5112226;28;20023;-45
2023/09/16 06:38:53;;;;;;;0.10;0.10;;;;;;;12.43;100.00;101203.22;5113187;28;20111;-44
2023/09/16 06:41:19;;;;;;;0.10;0.10;;;;;;;12.55;100.00;101201.81;5112196;28;20102;-44
2023/09/16 06:43:44;;;;;;;0.20;0.20;;;;;;;12.63;100.00;101200.31;5113155;28;20069;-45
2023/09/16 06:46:09;;;;;;;0.10;0.10;;;;;;;12.74;100.00;101213.53;5113180;28;20351;-45
2023/09/16 06:48:35;;;;;;;0.10;0.10;;;;;;;12.88;100.00;101211.31;5112159;28;20028;-45
2023/09/16 06:51:00;;;;;;;0.10;0.10;;;;;;;13.09;100.00;101222.22;5115343;28;20039;-45
2023/09/16 06:53:26;;;;;;;0.10;0.10;;;;;;;13.31;100.00;101217.56;5116665;28;20530;-45
2023/09/16 06:55:52;;;;;;;0.10;0.10;;;;;;;13.48;100.00;101224.06;5116329;28;20107;-45
2023/09/16 06:58:20;;;;;;;0.10;0.10;;;;;;;13.62;100.00;101219.19;5116268;28;20380;-46
2023/09/16 07:00:47;;;;;;;0.10;0.10;;;;;;;13.73;100.00;101211.66;5117637;28;20027;-44
2023/09/16 07:03:13;;;;;;;0.10;0.10;;;;;;;13.85;100.00;101218.81;5116112;28;20054;-44
2023/09/16 07:05:38;;;;;;;0.10;0.10;;;;;;;13.95;100.00;101212.16;5116912;28;20058;-44
2023/09/16 07:08:03;;;;;;;0.10;0.10;;;;;;;14.04;100.00;101212.34;5116939;28;20020;-46
2023/09/16 07:10:29;;;;;;;0.10;0.10;;;;;;;14.05;100.00;101208.03;5115566;28;20020;-45
2023/09/16 07:12:54;;;;;;;0.10;0.10;;;;;;;14.12;100.00;101209.91;5116670;28;20030;-47
2023/09/16 07:15:20;;;;;;;0.10;0.10;;;;;;;14.21;100.00;101212.69;5116557;27;20027;-45
2023/09/16 07:17:46;;;;;;;0.10;0.10;;;;;;;14.28;100.00;101211.06;5115939;28;20139;-46
2023/09/16 07:20:11;;;;;;;0.10;0.10;;;;;;;14.36;100.00;101204.34;5116629;28;20486;-44
2023/09/16 07:22:38;;;;;;;0.10;0.10;;;;;;;14.40;100.00;101211.34;5116551;28;20030;-45
2023/09/16 07:25:05;;;;;;;0.10;0.10;;;;;;;14.50;100.00;101212.41;5115508;28;20351;-45
2023/09/16 07:27:31;;;;;;;0.00;0.00;;;;;;;14.61;100.00;101216.06;5116155;28;20105;-48
2023/09/16 07:29:56;;;;;;;0.10;0.10;;;;;;;14.70;100.00;101209.34;5116585;28;20066;-44
2023/09/16 07:32:21;;;;;;;0.10;0.10;;;;;;;14.80;100.00;101211.25;5115446;28;20023;-45
2023/09/16 07:34:46;;;;;;;0.10;0.10;;;;;;;15.02;100.00;101211.63;5116442;28;20027;-46
2023/09/16 07:37:12;;;;;;;0.20;0.20;;;;;;;15.12;100.00;101211.81;5115755;28;20103;-45
2023/09/16 07:39:37;;;;;;;0.10;0.10;;;;;;;15.23;100.00;101219.75;5115443;28;20039;-49
2023/09/16 07:42:03;;;;;;;0.10;0.10;;;;;;;15.43;100.00;101219.22;5116095;28;20022;-44
2023/09/16 07:44:28;;;;;;;0.10;0.10;;;;;;;15.67;100.00;101220.44;5115980;28;20031;-46
2023/09/16 07:46:53;;;;;;;0.10;0.10;;;;;;;15.69;100.00;101216.16;5115387;28;20071;-44
2023/09/16 07:49:18;;;;;;;0.10;0.10;;;;;;;15.85;100.00;101219.84;5115714;28;20027;-45
2023/09/16 07:51:45;;;;;;;0.10;0.10;;;;;;;16.04;100.00;101224.44;5115095;28;20050;-45
2023/09/16 07:54:13;;;;;;;0.10;0.10;;;;;;;16.01;100.00;101219.22;5115953;28;20578;-44
2023/09/16 07:56:38;;;;;;;0.10;0.10;;;;;;;16.21;100.00;101223.78;5115691;28;20066;-45
2023/09/16 07:59:04;;;;;;;0.10;0.10;;;;;;;16.20;100.00;101220.31;5115089;28;20379;-45
2023/09/16 08:01:30;;;;;;;0.10;0.10;;;;;;;16.20;100.00;101220.31;5114856;28;20027;-47
2023/09/16 08:03:55;;;;;;;0.10;0.10;;;;;;;16.28;100.00;101223.00;5115529;28;20485;-45
2023/09/16 08:06:21;;;;;;;0.10;0.10;;;;;;;16.41;100.00;101230.09;5114697;28;20534;-47
2023/09/16 08:08:49;;;;;;;0.10;0.10;;;;;;;16.54;100.00;101231.13;5115602;28;20027;-49
2023/09/16 08:11:14;;;;;;;0.10;0.10;;;;;;;16.68;100.00;101233.88;5115217;28;20024;-44
2023/09/16 08:13:40;;;;;;;0.10;0.10;;;;;;;16.87;100.00;101231.44;5114763;28;20076;-45
2023/09/16 08:16:05;;;;;;;0.10;0.10;;;;;;;17.06;100.00;101229.94;5115612;28;20027;-45
2023/09/16 08:18:30;;;;;;;0.10;0.10;;;;;;;17.17;100.00;101232.63;5115145;27;20617;-45
2023/09/16 08:20:56;;;;;;;0.10;0.10;;;;;;;17.27;100.00;101231.84;5114660;28;20063;-44
2023/09/16 08:23:21;;;;;;;0.10;0.10;;;;;;;17.37;100.00;101241.47;5115214;28;20103;-45
2023/09/16 08:25:46;;;;;;;0.10;0.10;;;;;;;17.54;100.00;101232.91;5115262;28;20019;-45
2023/09/16 08:28:12;;;;;;;0.10;0.10;;;;;;;17.70;100.00;101234.75;5114313;28;20035;-45
2023/09/16 08:30:37;;;;;;;0.00;0.00;;;;;;;17.91;100.00;101246.19;5115421;28;20020;-45
2023/09/16 08:33:02;;;;;;;0.10;0.10;;;;;;;18.06;100.00;101254.13;5115254;28;20466;-45
2023/09/16 08:35:28;;;;;;;0.10;0.10;;;;;;;18.10;100.00;101240.22;5114001;28;20031;-45
2023/09/16 08:37:54;;;;;;;0.10;0.10;;;;;;;18.30;100.00;101243.78;5115096;28;20031;-46
2023/09/16 08:40:21;;;;;;;0.10;0.10;;;;;;;18.49;100.00;101249.94;5114744;28;20031;-46
2023/09/16 08:43:15;;;;;;;0.00;0.00;;;;;;;18.76;100.00;101252.63;5114107;28;20420;-45
2023/09/16 08:45:45;;;;;;;0.45;0.10;;;;;;;18.94;100.00;101256.19;5115063;28;20051;-44
2023/09/16 08:48:15;;;;;;;0.15;0.10;;;;;;;19.21;100.00;101259.66;5114114;28;20023;-48
2023/09/16 08:50:42;;;;;;;0.00;0.00;;;;;;;19.31;100.00;101256.19;5114805;28;20034;-45
2023/09/16 08:53:10;;;;;;;0.00;0.00;;;;;;;19.40;100.00;101260.53;5115036;28;20048;-45
2023/09/16 08:55:36;;;;;;;0.10;0.10;;;;;;;19.80;100.00;101262.25;5113599;28;20564;-45
2023/09/16 08:58:10;;;;;;;0.10;0.10;;;;;;;19.73;100.00;101264.88;5114401;28;20086;-45
2023/09/16 09:00:39;;;;;;;0.10;0.10;;;;;;;19.80;100.00;101264.88;5114403;28;20032;-45
2023/09/16 09:03:05;;;;;;;0.00;0.00;;;;;;;19.80;100.00;101260.50;5113664;28;20053;-47
2023/09/16 09:05:33;;;;;;;0.00;0.00;;;;;;;19.90;100.00;101270.09;5114150;28;20479;-46
2023/09/16 09:07:59;;;;;;;0.00;0.00;;;;;;;20.16;100.00;101263.06;5114701;28;20034;-46
2023/09/16 09:10:25;;;;;;;0.00;0.00;;;;;;;20.27;100.00;101256.03;5113489;28;20019;-45
2023/09/16 09:12:50;;;;;;;0.00;0.00;;;;;;;20.76;100.00;101264.53;5114319;28;20024;-47
2023/09/16 09:15:15;;;;;;;0.03;0.03;;;;;;;21.05;98.28;101266.97;5114070;28;20022;-45
2023/09/16 09:17:44;;;;;;;0.00;0.00;;;;;;;21.14;95.30;101271.28;5113582;28;20497;-45
2023/09/16 09:20:16;;;;;;;0.00;0.00;;;;;;;21.36;93.68;101272.84;5114448;28;20028;-49
2023/09/16 09:22:42;;;;;;;0.00;0.00;;;;;;;21.40;90.37;101270.19;5114371;28;20039;-45
2023/09/16 09:25:08;;;;;;;0.00;0.00;;;;;;;21.89;91.21;101277.63;5113538;28;20056;-45
2023/09/16 09:27:34;;;;;;;0.00;0.00;;;;;;;22.14;88.94;101285.22;5113803;28;20061;-44
2023/09/16 09:29:59;;;;;;;0.00;0.00;;;;;;;22.18;88.78;101279.03;5114244;28;20411;-45
2023/09/16 09:32:31;;;;;;;0.00;0.00;;;;;;;23.05;84.98;101285.78;5112852;28;20038;-46
2023/09/16 09:34:57;;;;;;;0.00;0.00;;;;;;;23.41;81.47;101280.84;5113993;28;20027;-48
2023/09/16 09:37:22;;;;;;;0.00;0.00;;;;;;;23.95;78.86;101280.78;5113120;28;20031;-45
2023/09/16 09:40:05;;;;;;;0.00;0.00;;;;;;;23.81;83.48;101280.16;5114080;28;20019;-46
2023/09/16 09:42:30;;;;;;;0.00;0.00;;;;;;;24.79;73.69;101290.47;5113760;27;20020;-44
2023/09/16 09:45:04;;;;;;;0.00;0.00;;;;;;;24.65;73.10;101296.06;5113025;28;20030;-48
2023/09/16 09:47:30;;;;;;;0.00;0.00;;;;;;;24.82;71.50;101298.31;5113619;28;20073;-45
2023/09/16 09:49:55;;;;;;;0.00;0.00;;;;;;;25.39;64.46;101297.91;5113807;28;20019;-46
2023/09/16 09:52:22;;;;;;;0.00;0.00;;;;;;;25.34;66.52;101305.03;5112612;28;20041;-46
2023/09/16 09:54:51;;;;;;;0.00;0.00;;;;;;;25.84;62.31;101305.50;5113801;28;20089;-48
2023/09/16 09:57:16;;;;;;;0.00;0.00;;;;;;;25.87;60.56;101305.41;5113212;28;20311;-45
2023/09/16 09:59:42;;;;;;;0.00;0.00;;;;;;;25.80;59.77;101299.44;5112826;28;20035;-45
2023/09/16 10:02:08;;;;;;;0.00;0.00;;;;;;;25.70;59.32;101295.31;5113461;28;20035;-48
2023/09/16 10:04:33;;;;;;;0.00;0.00;;;;;;;26.06;59.32;101297.03;5113411;28;20020;-45
2023/09/16 10:07:00;;;;;;;0.00;0.00;;;;;;;26.51;58.16;101288.69;5112739;28;20386;-45
2023/09/16 10:09:25;;;;;;;0.00;0.00;;;;;;;26.85;55.16;101290.28;5113184;28;20101;-47
2023/09/16 10:11:51;;;;;;;0.00;0.00;;;;;;;27.74;54.39;101286.47;5113461;28;20482;-50
2023/09/16 10:14:17;;;;;;;0.00;0.00;;;;;;;27.69;52.33;101279.63;5112212;28;20027;-49
2023/09/16 10:16:42;;;;;;;0.00;0.00;;;;;;;27.43;51.52;101281.41;5113592;28;20033;-45
2023/09/16 10:19:09;;;;;;;0.00;0.00;;;;;;;28.18;49.94;101285.81;5113519;28;20016;-46
2023/09/16 10:21:37;;;;;;;0.00;0.00;;;;;;;27.95;50.36;101286.63;5112195;28;20475;-46
2023/09/16 10:24:02;;;;;;;0.00;0.00;;;;;;;28.87;46.59;101279.66;5113415;28;20080;-46
2023/09/16 10:26:28;;;;;;;0.00;0.00;;;;;;;29.15;48.02;101293.56;5118288;28;20019;-48
2023/09/16 10:28:54;;;;;;;0.00;0.00;;;;;;;29.64;43.62;101290.66;5120037;28;20091;-45
2023/09/16 10:31:20;;;;;;;0.00;0.00;;;;;;;30.07;42.97;101288.75;5120015;27;20110;-47
2023/09/16 10:33:46;;;;;;;0.00;0.00;;;;;;;30.28;43.03;101286.91;5119389;27;20485;-49
2023/09/16 10:36:13;;;;;;;0.00;0.00;;;;;;;30.64;42.46;101287.94;5119795;27;20027;-46
2023/09/16 10:38:38;;;;;;;0.00;0.00;;;;;;;30.75;41.29;101285.63;5119966;27;20024;-45
2023/09/16 10:41:07;;;;;;;0.00;0.00;;;;;;;30.62;41.60;101284.50;5119104;28;20052;-47
2023/09/16 10:43:33;;;;;;;0.00;0.00;;;;;;;30.08;43.58;101279.00;5119502;27;20080;-46
2023/09/16 10:45:58;;;;;;;0.00;0.00;;;;;;;30.27;41.75;101276.38;5120181;27;20090;-46
2023/09/16 10:48:24;;;;;;;0.00;0.00;;;;;;;30.44;41.74;101275.56;5118934;28;20046;-46
2023/09/16 10:50:55;;;;;;;0.00;0.00;;;;;;;29.81;42.09;101277.50;5120067;28;20076;-47
2023/09/16 10:53:28;;;;;;;0.00;0.00;;;;;;;29.77;42.87;101275.03;5119638;27;20031;-45
2023/09/16 10:56:01;;;;;;;0.00;0.00;;;;;;;29.42;42.79;101265.03;5119278;27;20041;-46
2023/09/16 10:58:48;;;;;;;0.00;0.00;;;;;;;29.31;46.34;101264.59;5119683;27;20040;-48
2023/09/16 11:01:36;;;;;;;0.00;0.00;;;;;;;29.94;46.42;101271.66;5119605;27;20047;-47
2023/09/16 11:04:14;;;;;;;0.00;0.00;;;;;;;30.32;43.26;101263.72;5119905;27;20032;-45
2023/09/16 11:06:40;;;;;;;0.00;0.00;;;;;;;29.98;42.62;101262.59;5120077;27;20066;-45
2023/09/16 11:09:06;;;;;;;0.00;0.00;;;;;;;30.80;40.90;101264.97;5119250;27;20051;-46
2023/09/16 11:11:33;;;;;;;0.00;0.00;;;;;;;30.84;39.88;101255.03;5119405;27;20050;-47
2023/09/16 11:13:59;;;;;;;0.00;0.00;;;;;;;31.11;39.84;101255.50;5119761;28;20028;-45
2023/09/16 11:16:24;;;;;;;0.10;0.00;;;;;;;30.82;40.94;101249.81;5118708;27;20068;-45